Time;durP1;ratioP1;P1;durP2;ratioP2;P2;SDS_P1;SDS_P2;PMS_P1;PMS_P2;Temp;Humidity;BMP_temperature;BMP_pressure;BME280_temperature;BME280_humidity;BME280_pressure;Samples;Min_cycle;Max_cycle;Signal;HPM_P1;HPM_P2
2023/08/16 00:01:38;;;;;;;0.20;0.20;;;;;;;21.18;61.62;96838.03;10485542;28;20039;-30
2023/08/16 00:06:42;;;;;;;0.10;0.10;;;;;;;21.16;61.72;96834.66;10492649;28;20112;-29
2023/08/16 00:11:43;;;;;;;0.40;0.30;;;;;;;21.17;61.81;96836.34;10489795;28;20078;-29
2023/08/16 00:16:43;;;;;;;0.30;0.30;;;;;;;21.12;61.66;96817.69;10492564;28;20063;-29
2023/08/16 00:21:43;;;;;;;0.50;0.30;;;;;;;21.19;62.03;96836.31;10486889;28;20032;-29
2023/08/16 00:26:44;;;;;;;0.30;0.30;;;;;;;21.19;61.73;96826.97;10490939;28;20271;-29
2023/08/16 00:31:44;;;;;;;0.20;0.20;;;;;;;21.18;61.61;96830.38;10485157;28;20041;-29
2023/08/16 00:36:44;;;;;;;0.27;0.27;;;;;;;21.19;61.82;96828.66;10485531;28;20031;-29
2023/08/16 00:41:45;;;;;;;0.50;0.50;;;;;;;21.19;61.75;96829.53;10490216;28;20028;-29
2023/08/16 00:46:45;;;;;;;0.37;0.33;;;;;;;21.20;61.74;96825.25;10483239;28;20111;-30
2023/08/16 00:51:46;;;;;;;0.20;0.20;;;;;;;21.19;61.65;96826.97;10490102;28;20101;-29
2023/08/16 00:56:47;;;;;;;0.30;0.30;;;;;;;21.19;61.83;96826.97;10486242;28;20287;-29
2023/08/16 01:01:47;;;;;;;0.30;0.30;;;;;;;21.19;61.40;96829.53;10490985;28;20037;-29
2023/08/16 01:06:48;;;;;;;0.20;0.20;;;;;;;21.20;61.46;96830.34;10488593;28;20094;-29
2023/08/16 01:12:03;;;;;;;0.30;0.30;;;;;;;21.19;61.55;96821.88;10481555;28;20067;-29
2023/08/16 01:17:05;;;;;;;0.40;0.40;;;;;;;21.19;61.57;96821.88;10489953;28;20033;-29
2023/08/16 01:22:24;;;;;;;0.40;0.40;;;;;;;21.19;61.59;96816.78;10485168;28;20136;-28
2023/08/16 01:27:25;;;;;;;0.20;0.20;;;;;;;21.18;61.54;96816.81;10490742;28;20077;-30
2023/08/16 01:32:27;;;;;;;0.35;0.30;;;;;;;21.16;61.46;96806.66;10486716;28;20041;-29
2023/08/16 01:37:28;;;;;;;0.30;0.20;;;;;;;21.17;61.66;96805.78;10490222;28;20560;-29
2023/08/16 01:42:32;;;;;;;0.30;0.30;;;;;;;21.19;61.54;96801.50;10496665;28;20199;-29
2023/08/16 01:47:33;;;;;;;0.50;0.50;;;;;;;21.18;61.66;96797.28;10497622;28;20044;-29
2023/08/16 01:52:35;;;;;;;0.35;0.35;;;;;;;21.20;61.44;96809.97;10493165;28;20032;-29
2023/08/16 01:57:35;;;;;;;0.43;0.40;;;;;;;21.14;61.57;96795.59;10497784;28;20426;-29
2023/08/16 02:02:39;;;;;;;0.30;0.30;;;;;;;21.20;61.65;96810.84;10494808;28;20036;-29
2023/08/16 02:07:39;;;;;;;0.65;0.40;;;;;;;21.15;61.64;96817.66;10496636;28;20043;-29
2023/08/16 02:12:40;;;;;;;0.63;0.40;;;;;;;21.19;61.45;96823.56;10488026;28;20051;-29
2023/08/16 02:17:41;;;;;;;0.20;0.20;;;;;;;21.18;61.44;96830.38;10495659;28;20102;-29
2023/08/16 02:22:41;;;;;;;0.90;0.40;;;;;;;21.19;61.64;96834.63;10494737;28;20115;-29
2023/08/16 02:27:42;;;;;;;0.20;0.20;;;;;;;21.20;61.54;96849.03;10496699;28;20035;-30
2023/08/16 02:32:42;;;;;;;0.30;0.20;;;;;;;21.21;61.61;96862.63;10488228;28;20094;-29
2023/08/16 02:37:42;;;;;;;0.40;0.40;;;;;;;21.20;61.42;96871.97;10496188;28;20036;-29
2023/08/16 02:42:43;;;;;;;0.23;0.20;;;;;;;21.19;61.46;96870.28;10489512;28;20040;-29
2023/08/16 02:47:45;;;;;;;0.98;0.40;;;;;;;21.21;61.49;96886.38;10493166;28;20302;-29
2023/08/16 02:52:46;;;;;;;0.30;0.30;;;;;;;21.21;61.59;96890.63;10487561;28;20528;-29
2023/08/16 02:57:46;;;;;;;1.23;0.30;;;;;;;21.21;61.45;96911.84;10492818;28;20131;-29
2023/08/16 03:02:47;;;;;;;0.30;0.30;;;;;;;21.21;61.49;96906.75;10495269;28;20044;-29
2023/08/16 03:07:48;;;;;;;0.27;0.27;;;;;;;21.20;61.39;96899.97;10489653;28;20024;-30
2023/08/16 03:12:48;;;;;;;0.40;0.40;;;;;;;21.21;61.44;96904.19;10494499;28;20039;-30
2023/08/16 03:17:48;;;;;;;0.20;0.20;;;;;;;21.21;61.45;96896.56;10491851;28;20032;-30
2023/08/16 03:22:49;;;;;;;0.60;0.40;;;;;;;21.19;61.42;96890.63;10487259;28;20041;-29
2023/08/16 03:27:51;;;;;;;0.30;0.30;;;;;;;21.20;61.32;96881.28;10492004;28;20335;-29
2023/08/16 03:32:53;;;;;;;0.30;0.30;;;;;;;21.18;61.44;96863.50;10483968;28;20028;-29
2023/08/16 03:37:53;;;;;;;0.38;0.30;;;;;;;21.19;61.42;96867.72;10493770;28;20283;-29
2023/08/16 03:42:53;;;;;;;0.30;0.30;;;;;;;21.21;61.75;96858.38;10491416;28;20035;-29
2023/08/16 03:47:56;;;;;;;0.40;0.40;;;;;;;21.21;61.49;96853.28;10485459;28;20310;-30
2023/08/16 03:52:56;;;;;;;0.28;0.28;;;;;;;21.20;61.37;96845.63;10491672;28;20127;-28
2023/08/16 03:57:57;;;;;;;0.10;0.10;;;;;;;21.18;61.48;96843.13;10485264;28;20103;-29
2023/08/16 04:02:57;;;;;;;0.20;0.20;;;;;;;21.19;61.45;96839.72;10491362;28;20032;-29
2023/08/16 04:07:58;;;;;;;0.20;0.20;;;;;;;21.20;61.37;96831.22;10484784;28;20060;-29
2023/08/16 04:12:58;;;;;;;0.30;0.27;;;;;;;21.19;61.29;96829.53;10492088;28;20402;-29
2023/08/16 04:17:58;;;;;;;0.33;0.33;;;;;;;21.20;61.56;96826.13;10488204;28;20302;-30
2023/08/16 04:22:59;;;;;;;0.30;0.30;;;;;;;21.20;61.33;96809.97;10490625;28;20665;-29
2023/08/16 04:28:00;;;;;;;0.40;0.30;;;;;;;21.21;61.26;96811.69;10483160;28;20073;-30
2023/08/16 04:33:00;;;;;;;0.40;0.30;;;;;;;21.21;61.44;96801.50;10487271;28;20040;-29
2023/08/16 04:38:01;;;;;;;0.20;0.20;;;;;;;21.20;61.30;96800.66;10490433;28;20418;-29
2023/08/16 04:43:02;;;;;;;1.27;0.20;;;;;;;21.19;61.42;96806.63;10487341;28;20490;-29
2023/08/16 04:48:03;;;;;;;0.30;0.30;;;;;;;21.21;61.31;96820.16;10491488;28;20029;-29
2023/08/16 04:53:03;;;;;;;0.43;0.43;;;;;;;21.22;61.45;96813.38;10482140;28;20105;-28
2023/08/16 04:58:04;;;;;;;0.30;0.30;;;;;;;21.22;61.21;96834.59;10490173;28;20084;-29
2023/08/16 05:03:05;;;;;;;0.40;0.30;;;;;;;21.20;61.44;96836.31;10488688;28;20298;-30
2023/08/16 05:08:07;;;;;;;0.28;0.25;;;;;;;21.21;61.51;96832.91;10485894;28;20116;-29
2023/08/16 05:13:08;;;;;;;0.37;0.30;;;;;;;21.22;61.20;96839.69;10496517;28;20506;-29
2023/08/16 05:18:08;;;;;;;0.38;0.38;;;;;;;21.20;61.36;96841.41;10496263;28;20036;-29
2023/08/16 05:23:09;;;;;;;0.20;0.20;;;;;;;21.22;61.38;96849.03;10497662;28;20405;-29
2023/08/16 05:28:09;;;;;;;0.40;0.40;;;;;;;21.22;61.37;96844.78;10495870;28;20086;-29
2023/08/16 05:33:09;;;;;;;0.40;0.40;;;;;;;21.21;61.29;96839.72;10498910;28;20031;-30
2023/08/16 05:38:10;;;;;;;0.30;0.30;;;;;;;21.22;61.30;96843.94;10494688;28;20290;-29
2023/08/16 05:43:10;;;;;;;0.30;0.30;;;;;;;21.21;61.21;96843.09;10498534;28;20040;-29
2023/08/16 05:48:10;;;;;;;0.33;0.33;;;;;;;21.22;61.34;96846.50;10489559;28;20024;-29
2023/08/16 05:53:11;;;;;;;0.40;0.40;;;;;;;21.22;61.34;96854.13;10497672;28;20048;-29
2023/08/16 05:58:11;;;;;;;0.30;0.30;;;;;;;21.22;60.95;96849.03;10492915;28;20318;-29
2023/08/16 06:03:15;;;;;;;0.17;0.17;;;;;;;21.23;61.19;96845.63;10495705;28;20298;-29
2023/08/16 06:08:16;;;;;;;0.35;0.35;;;;;;;21.22;61.28;96847.31;10497588;28;20490;-29
2023/08/16 06:13:16;;;;;;;0.20;0.20;;;;;;;21.22;61.17;96849.84;10489789;28;20037;-29
2023/08/16 06:18:16;;;;;;;0.30;0.30;;;;;;;21.23;61.32;96845.63;10497072;28;20066;-29
2023/08/16 06:23:17;;;;;;;0.40;0.40;;;;;;;21.24;61.30;96848.13;10487748;28;20376;-29
2023/08/16 06:28:17;;;;;;;0.40;0.40;;;;;;;21.23;61.27;96841.34;10496668;28;20033;-30
2023/08/16 06:33:18;;;;;;;0.53;0.53;;;;;;;21.21;61.38;96835.44;10493933;28;20638;-30
2023/08/16 06:38:18;;;;;;;0.28;0.28;;;;;;;21.22;61.11;96842.22;10496383;28;20271;-29
2023/08/16 06:43:19;;;;;;;0.30;0.30;;;;;;;21.23;61.39;96846.44;10490899;28;20056;-29
2023/08/16 06:48:19;;;;;;;0.40;0.40;;;;;;;21.21;61.40;96843.09;10494741;28;20384;-29
2023/08/16 06:53:20;;;;;;;0.50;0.50;;;;;;;21.21;61.43;96843.09;10489178;28;20040;-29
2023/08/16 06:58:20;;;;;;;0.40;0.37;;;;;;;21.23;61.28;96846.44;10492286;28;20033;-29
2023/08/16 07:03:20;;;;;;;0.35;0.30;;;;;;;21.24;61.23;96845.59;10495046;28;20067;-29
2023/08/16 07:08:21;;;;;;;0.40;0.40;;;;;;;21.24;61.22;96847.31;10485854;28;20054;-29
2023/08/16 07:13:21;;;;;;;0.40;0.40;;;;;;;21.24;61.41;96858.31;10494651;28;20414;-29
2023/08/16 07:18:23;;;;;;;0.30;0.30;;;;;;;21.21;61.34;96858.38;10485676;28;20290;-29
2023/08/16 07:23:23;;;;;;;0.82;0.70;;;;;;;21.24;61.88;96865.97;10492212;28;20036;-29
2023/08/16 07:28:24;;;;;;;0.43;0.40;;;;;;;21.26;61.42;96863.41;10488443;28;20040;-29
2023/08/16 07:33:25;;;;;;;0.60;0.40;;;;;;;21.25;61.34;96870.22;10487877;28;20514;-29
2023/08/16 07:38:26;;;;;;;0.40;0.40;;;;;;;21.25;61.27;96871.91;10493871;28;20040;-29
2023/08/16 07:43:28;;;;;;;0.57;0.53;;;;;;;21.25;61.33;96877.88;10484282;28;20392;-30
2023/08/16 07:48:29;;;;;;;0.40;0.30;;;;;;;21.25;61.42;96865.13;10494042;28;20111;-30
2023/08/16 07:53:29;;;;;;;0.60;0.60;;;;;;;21.25;61.37;96869.38;10490710;28;20045;-31
2023/08/16 07:58:30;;;;;;;0.40;0.40;;;;;;;21.24;61.23;96871.06;10493586;28;20096;-29
2023/08/16 08:03:30;;;;;;;0.40;0.40;;;;;;;21.26;61.24;96871.06;10483938;28;20291;-29
2023/08/16 08:08:31;;;;;;;0.57;0.57;;;;;;;21.23;61.20;96866.81;10492579;28;20040;-29
2023/08/16 08:13:33;;;;;;;0.57;0.43;;;;;;;21.23;61.27;96871.91;10490080;28;20020;-29
2023/08/16 08:18:34;;;;;;;0.55;0.50;;;;;;;21.26;61.31;96882.09;10485017;28;20035;-29
2023/08/16 08:23:34;;;;;;;0.35;0.30;;;;;;;21.26;61.40;96881.25;10492388;28;20029;-30
2023/08/16 08:28:35;;;;;;;0.53;0.53;;;;;;;21.25;61.56;96884.66;10487445;28;20437;-30
2023/08/16 08:33:35;;;;;;;0.40;0.40;;;;;;;21.26;61.54;96886.34;10491657;28;20479;-29
2023/08/16 08:38:36;;;;;;;0.40;0.40;;;;;;;21.28;61.89;96890.56;10485147;28;20317;-29
2023/08/16 08:43:37;;;;;;;0.50;0.50;;;;;;;21.28;61.50;96894.81;10490714;28;20479;-29
2023/08/16 08:48:38;;;;;;;0.63;0.63;;;;;;;21.28;61.43;96894.81;10483672;28;20294;-29
2023/08/16 08:53:38;;;;;;;0.35;0.35;;;;;;;21.28;61.42;96900.75;10488223;28;20043;-29
2023/08/16 08:58:40;;;;;;;0.53;0.53;;;;;;;21.27;61.64;96893.97;10486367;28;20066;-30
2023/08/16 09:03:43;;;;;;;0.57;0.57;;;;;;;21.27;61.46;96899.06;10486434;28;20278;-29
2023/08/16 09:08:45;;;;;;;0.43;0.43;;;;;;;21.27;61.53;96899.06;10491162;28;20024;-28
2023/08/16 09:13:47;;;;;;;0.55;0.55;;;;;;;21.22;61.59;96885.50;10483801;28;20037;-29
2023/08/16 09:18:48;;;;;;;0.50;0.50;;;;;;;21.28;61.37;96885.47;10489201;28;20409;-29
2023/08/16 09:23:56;;;;;;;0.40;0.40;;;;;;;21.27;61.22;96876.16;10488053;28;20115;-30
2023/08/16 09:29:02;;;;;;;0.40;0.40;;;;;;;21.28;61.51;96879.50;10488250;28;20112;-29
2023/08/16 09:34:03;;;;;;;0.45;0.45;;;;;;;21.28;61.45;96872.72;10490102;28;20036;-29
2023/08/16 09:39:11;;;;;;;0.57;0.57;;;;;;;21.29;61.53;96871.06;10483115;28;20521;-30
2023/08/16 09:44:12;;;;;;;0.55;0.55;;;;;;;21.28;61.46;96870.19;10491766;28;20041;-29
2023/08/16 09:49:12;;;;;;;0.50;0.50;;;;;;;21.29;61.45;96861.69;10482278;28;20055;-29
2023/08/16 09:54:14;;;;;;;0.43;0.40;;;;;;;21.28;61.45;96860.00;10485590;28;20037;-30
2023/08/16 09:59:15;;;;;;;0.47;0.45;;;;;;;21.30;61.75;96855.72;10497235;28;20043;-30
2023/08/16 10:04:17;;;;;;;0.45;0.45;;;;;;;21.29;61.72;96856.59;10492516;28;20422;-29
2023/08/16 10:09:18;;;;;;;0.63;0.63;;;;;;;21.30;61.64;96857.44;10493346;28;20029;-29
2023/08/16 10:14:21;;;;;;;0.55;0.55;;;;;;;21.32;61.47;96845.53;10496963;28;20040;-30
2023/08/16 10:19:23;;;;;;;0.70;0.50;;;;;;;21.30;61.73;96839.63;10483110;28;20668;-29
2023/08/16 10:24:24;;;;;;;0.68;0.68;;;;;;;21.30;61.81;96837.06;10497257;28;20033;-29
2023/08/16 10:29:26;;;;;;;0.50;0.50;;;;;;;21.32;61.72;96828.53;10492248;28;20187;-29
2023/08/16 10:34:26;;;;;;;0.73;0.70;;;;;;;21.32;61.84;96823.44;10496121;28;20042;-29
2023/08/16 10:39:30;;;;;;;0.40;0.40;;;;;;;21.30;61.59;96814.97;10489312;28;20512;-29
2023/08/16 10:44:30;;;;;;;0.60;0.60;;;;;;;21.31;61.80;96814.13;10495353;28;20036;-29
2023/08/16 10:49:37;;;;;;;0.50;0.50;;;;;;;21.32;61.84;96804.78;10488749;28;20036;-29
2023/08/16 10:54:37;;;;;;;0.43;0.43;;;;;;;21.32;61.77;96805.63;10491907;28;20033;-29
2023/08/16 10:59:42;;;;;;;0.50;0.50;;;;;;;21.34;61.84;96811.56;10495660;28;20082;-29
2023/08/16 11:04:42;;;;;;;0.65;0.65;;;;;;;21.30;61.80;96802.25;10488775;28;20344;-29
2023/08/16 11:09:43;;;;;;;0.47;0.47;;;;;;;21.33;61.98;96798.84;10481724;28;20089;-29
2023/08/16 11:14:46;;;;;;;0.38;0.38;;;;;;;21.33;61.98;96797.16;10493284;28;20356;-29
2023/08/16 11:19:46;;;;;;;0.60;0.60;;;;;;;21.33;61.85;96797.16;10494511;28;20040;-29
2023/08/16 11:24:47;;;;;;;0.70;0.70;;;;;;;21.34;62.12;96787.78;10493546;28;20031;-29
2023/08/16 11:29:52;;;;;;;0.60;0.50;;;;;;;21.34;62.16;96786.09;10494182;28;20033;-29
2023/08/16 11:34:52;;;;;;;0.50;0.50;;;;;;;21.34;62.44;96788.66;10487926;28;20546;-29
2023/08/16 11:40:00;;;;;;;0.70;0.70;;;;;;;21.34;62.34;96788.66;10490664;28;20036;-29
2023/08/16 11:45:01;;;;;;;0.90;0.60;;;;;;;21.36;62.27;96784.38;10489891;28;20082;-29
2023/08/16 11:50:08;;;;;;;0.43;0.43;;;;;;;21.35;62.20;96775.03;10488247;28;20036;-29
2023/08/16 11:55:14;;;;;;;0.52;0.52;;;;;;;21.36;62.35;96774.19;10494020;28;20048;-29
2023/08/16 12:00:25;;;;;;;0.50;0.50;;;;;;;21.34;62.48;96763.16;10484437;28;20403;-29
2023/08/16 12:05:25;;;;;;;0.50;0.50;;;;;;;21.36;62.54;96761.44;10491142;28;20028;-29
2023/08/16 12:10:27;;;;;;;0.60;0.60;;;;;;;21.37;62.50;96759.72;10491863;28;20089;-29
2023/08/16 12:15:28;;;;;;;0.70;0.70;;;;;;;21.38;62.61;96758.91;10488504;28;20025;-29
2023/08/16 12:20:29;;;;;;;0.70;0.70;;;;;;;21.37;62.83;96763.13;10491728;28;20033;-29
2023/08/16 12:25:29;;;;;;;0.70;0.70;;;;;;;21.38;62.72;96758.91;10490821;28;20121;-29
2023/08/16 12:30:29;;;;;;;0.50;0.50;;;;;;;21.38;62.68;96759.72;10491806;28;20469;-29
2023/08/16 12:35:31;;;;;;;0.50;0.50;;;;;;;21.38;62.62;96748.72;10484664;28;20334;-29
2023/08/16 12:40:31;;;;;;;0.30;0.30;;;;;;;21.39;63.08;96746.13;10491095;28;20337;-30
2023/08/16 12:45:32;;;;;;;0.60;0.60;;;;;;;21.39;63.06;96743.56;10483383;28;20058;-29
2023/08/16 12:50:32;;;;;;;0.50;0.50;;;;;;;21.39;63.15;96748.66;10486586;28;20036;-29
2023/08/16 12:55:33;;;;;;;0.57;0.57;;;;;;;21.34;62.97;96736.84;10483376;28;20039;-29
2023/08/16 13:00:33;;;;;;;0.30;0.30;;;;;;;21.40;63.20;96742.72;10487342;28;20090;-29
2023/08/16 13:05:34;;;;;;;0.50;0.50;;;;;;;21.40;62.99;96747.81;10491711;28;20031;-29
2023/08/16 13:10:34;;;;;;;0.70;0.70;;;;;;;21.42;63.25;96750.34;10474540;28;20369;-30
2023/08/16 13:15:34;;;;;;;0.70;0.60;;;;;;;21.40;62.97;96742.72;10491229;28;20040;-29
2023/08/16 13:20:35;;;;;;;0.53;0.53;;;;;;;21.41;63.01;96739.28;10482447;28;20082;-29
2023/08/16 13:25:35;;;;;;;0.50;0.50;;;;;;;21.42;63.27;96729.97;10481289;28;20036;-29
2023/08/16 13:30:39;;;;;;;0.60;0.60;;;;;;;21.41;63.44;96731.66;10476393;28;20304;-30
2023/08/16 13:35:44;;;;;;;0.60;0.60;;;;;;;21.40;63.56;96722.34;10498499;28;20098;-29
2023/08/16 13:40:49;;;;;;;0.50;0.50;;;;;;;21.41;63.31;96721.47;10491296;28;20035;-29
2023/08/16 13:45:50;;;;;;;0.70;0.70;;;;;;;21.36;63.44;96710.50;10498246;28;20376;-30
2023/08/16 13:50:50;;;;;;;0.63;0.63;;;;;;;21.42;63.52;96715.53;10493775;28;20037;-29
2023/08/16 13:55:50;;;;;;;0.60;0.60;;;;;;;21.42;63.47;96715.53;10493060;28;20033;-31
2023/08/16 14:00:51;;;;;;;0.93;0.73;;;;;;;21.42;63.54;96704.50;10497706;28;20040;-30
2023/08/16 14:05:56;;;;;;;0.37;0.37;;;;;;;21.38;63.38;96708.78;10490724;28;20062;-29
2023/08/16 14:11:00;;;;;;;0.45;0.45;;;;;;;21.43;63.35;96701.09;10497132;28;20800;-29
2023/08/16 14:16:03;;;;;;;0.52;0.52;;;;;;;21.42;63.23;96695.16;10488376;28;20553;-30
2023/08/16 14:21:04;;;;;;;0.60;0.60;;;;;;;21.43;62.80;96685.81;10496747;28;20112;-30
2023/08/16 14:26:05;;;;;;;0.60;0.60;;;;;;;21.42;63.31;96684.97;10492568;28;20020;-29
2023/08/16 14:31:05;;;;;;;0.50;0.50;;;;;;;21.43;63.46;96676.47;10493488;28;20403;-29
2023/08/16 14:36:05;;;;;;;0.50;0.40;;;;;;;21.43;63.11;96675.59;10496353;28;20291;-29
2023/08/16 14:41:06;;;;;;;0.60;0.50;;;;;;;21.43;63.42;96675.59;10490464;28;20029;-29
2023/08/16 14:46:06;;;;;;;0.50;0.50;;;;;;;21.44;63.53;96688.34;10496105;28;20278;-29
2023/08/16 14:51:06;;;;;;;0.65;0.52;;;;;;;21.44;63.52;96674.75;10488659;28;20029;-30
2023/08/16 14:56:07;;;;;;;0.50;0.50;;;;;;;21.43;63.26;96681.56;10492556;28;20494;-31
2023/08/16 15:01:08;;;;;;;0.40;0.40;;;;;;;21.43;63.69;96675.59;10490704;28;20048;-30
2023/08/16 15:06:08;;;;;;;0.60;0.60;;;;;;;21.44;63.41;96673.06;10489843;28;20020;-29
2023/08/16 15:11:18;;;;;;;0.50;0.50;;;;;;;21.44;63.51;96673.06;10495078;28;20055;-30
2023/08/16 15:16:19;;;;;;;0.50;0.50;;;;;;;21.44;63.55;96673.06;10488141;28;20036;-29
2023/08/16 15:21:20;;;;;;;0.50;0.50;;;;;;;21.44;63.52;96667.09;10494297;28;20516;-29
2023/08/16 15:26:21;;;;;;;0.60;0.60;;;;;;;21.44;63.55;96662.88;10486964;28;20028;-29
2023/08/16 15:31:21;;;;;;;0.82;0.60;;;;;;;21.44;63.39;96644.19;10494086;28;20066;-29
2023/08/16 15:36:22;;;;;;;0.50;0.50;;;;;;;21.43;63.54;96651.00;10491109;28;20033;-29
2023/08/16 15:41:22;;;;;;;0.50;0.50;;;;;;;21.42;63.27;96644.22;10488411;28;20294;-29
2023/08/16 15:46:22;;;;;;;0.40;0.40;;;;;;;21.46;63.73;96657.75;10490450;28;20028;-29
2023/08/16 15:51:23;;;;;;;0.50;0.50;;;;;;;21.46;63.50;96660.31;10489719;28;20054;-29
2023/08/16 15:56:24;;;;;;;0.60;0.60;;;;;;;21.44;63.56;96652.69;10492806;28;20290;-31
2023/08/16 16:01:24;;;;;;;0.40;0.40;;;;;;;21.45;63.41;96645.84;10487844;28;20028;-29
2023/08/16 16:06:25;;;;;;;0.93;0.53;;;;;;;21.44;63.62;96646.72;10493040;28;20035;-29
2023/08/16 16:11:28;;;;;;;0.98;0.60;;;;;;;21.46;63.56;96661.13;10486582;28;20835;-29
2023/08/16 16:16:32;;;;;;;0.50;0.50;;;;;;;21.45;63.47;96654.34;10492628;28;20032;-29
2023/08/16 16:21:34;;;;;;;0.50;0.50;;;;;;;21.46;63.86;96656.03;10483747;28;20434;-30
2023/08/16 16:26:34;;;;;;;0.60;0.60;;;;;;;21.45;63.66;96654.34;10487222;28;20098;-29
2023/08/16 16:31:34;;;;;;;0.40;0.40;;;;;;;21.47;63.51;96655.19;10493204;28;20097;-29
2023/08/16 16:36:35;;;;;;;0.30;0.30;;;;;;;21.46;63.74;96656.03;10486287;28;20059;-29
2023/08/16 16:41:35;;;;;;;0.60;0.60;;;;;;;21.44;63.37;96657.78;10493180;28;20035;-31
2023/08/16 16:46:36;;;;;;;0.40;0.40;;;;;;;21.46;63.52;96662.84;10491310;28;20028;-29
2023/08/16 16:51:36;;;;;;;0.60;0.60;;;;;;;21.42;63.43;96651.84;10488863;28;20452;-29
2023/08/16 16:56:36;;;;;;;0.70;0.70;;;;;;;21.46;63.35;96657.75;10491943;28;20398;-29
2023/08/16 17:01:37;;;;;;;0.40;0.40;;;;;;;21.47;63.23;96656.91;10485388;28;20486;-29
2023/08/16 17:06:37;;;;;;;0.40;0.37;;;;;;;21.46;63.37;96666.22;10494445;28;20437;-30
2023/08/16 17:11:37;;;;;;;0.60;0.60;;;;;;;21.45;63.16;96667.09;10492147;28;20101;-30
2023/08/16 17:16:38;;;;;;;0.50;0.50;;;;;;;21.46;63.65;96681.50;10499894;28;20032;-29
2023/08/16 17:21:39;;;;;;;0.60;0.60;;;;;;;21.46;63.45;96691.69;10498574;28;20652;-29
2023/08/16 17:26:39;;;;;;;0.65;0.40;;;;;;;21.45;63.46;96690.03;10495166;28;20025;-29
2023/08/16 17:31:39;;;;;;;0.37;0.37;;;;;;;21.41;63.25;96685.81;10497270;28;20028;-29
2023/08/16 17:36:40;;;;;;;0.77;0.60;;;;;;;21.45;63.20;96697.66;10493445;28;20549;-30
2023/08/16 17:41:40;;;;;;;0.60;0.60;;;;;;;21.45;63.20;96690.03;10496707;28;20282;-29
2023/08/16 17:46:42;;;;;;;0.40;0.40;;;;;;;21.45;63.01;96679.84;10491456;28;20033;-29
2023/08/16 17:51:43;;;;;;;0.60;0.60;;;;;;;21.46;63.12;96686.59;10497881;28;20118;-29
2023/08/16 17:56:43;;;;;;;0.70;0.70;;;;;;;21.47;63.05;96682.38;10490148;28;20062;-29
2023/08/16 18:01:44;;;;;;;0.57;0.50;;;;;;;21.45;63.21;96678.97;10488184;28;20082;-29
2023/08/16 18:06:44;;;;;;;0.82;0.50;;;;;;;21.47;63.13;96678.09;10497766;28;20382;-29
2023/08/16 18:11:45;;;;;;;0.50;0.50;;;;;;;21.46;63.21;96681.50;10493479;28;20039;-30
2023/08/16 18:16:45;;;;;;;0.50;0.50;;;;;;;21.44;63.10;96693.44;10496512;28;20043;-29
2023/08/16 18:21:46;;;;;;;0.60;0.60;;;;;;;21.42;63.10;96684.97;10492909;28;20093;-29
2023/08/16 18:26:46;;;;;;;0.65;0.65;;;;;;;21.45;63.16;96699.34;10488872;28;20032;-29
2023/08/16 18:31:46;;;;;;;0.47;0.47;;;;;;;21.47;63.05;96715.50;10496659;28;20039;-29
2023/08/16 18:36:47;;;;;;;0.40;0.40;;;;;;;21.47;63.20;96723.13;10489188;28;20027;-30
2023/08/16 18:41:47;;;;;;;0.40;0.40;;;;;;;21.46;62.91;96727.38;10496194;28;20053;-30
2023/08/16 18:46:47;;;;;;;0.60;0.60;;;;;;;21.46;62.92;96734.19;10488036;28;20021;-29
2023/08/16 18:51:48;;;;;;;0.60;0.60;;;;;;;21.46;62.46;96741.81;10494093;28;20085;-30
2023/08/16 18:56:48;;;;;;;0.30;0.30;;;;;;;21.45;62.73;96735.88;10494296;28;20298;-29
2023/08/16 19:01:49;;;;;;;0.30;0.30;;;;;;;21.46;62.76;96737.56;10494070;28;20036;-29
2023/08/16 19:06:49;;;;;;;0.40;0.40;;;;;;;21.45;62.68;96746.06;10495198;28;20094;-29
2023/08/16 19:11:49;;;;;;;0.40;0.40;;;;;;;21.43;62.78;96741.84;10488912;28;20039;-29
2023/08/16 19:16:50;;;;;;;0.37;0.37;;;;;;;21.46;62.66;96752.00;10494764;28;20788;-29
2023/08/16 19:21:50;;;;;;;0.27;0.27;;;;;;;21.46;62.68;96757.09;10489943;28;20286;-29
2023/08/16 19:26:50;;;;;;;0.40;0.40;;;;;;;21.46;62.68;96750.28;10494884;28;20347;-29
2023/08/16 19:31:51;;;;;;;0.30;0.30;;;;;;;21.45;62.77;96763.88;10491469;28;20029;-29
2023/08/16 19:36:52;;;;;;;0.40;0.40;;;;;;;21.45;62.58;96771.53;10488967;28;20060;-30
2023/08/16 19:41:52;;;;;;;0.50;0.40;;;;;;;21.46;63.01;96777.50;10493563;28;20039;-30
2023/08/16 19:46:52;;;;;;;0.53;0.50;;;;;;;21.46;62.58;96778.31;10490752;28;20677;-30
2023/08/16 19:51:53;;;;;;;0.30;0.30;;;;;;;21.46;62.65;96780.03;10493968;28;20271;-29
2023/08/16 19:56:53;;;;;;;0.50;0.50;;;;;;;21.43;62.52;96780.91;10484244;28;20036;-30
2023/08/16 20:01:54;;;;;;;0.40;0.40;;;;;;;21.46;62.69;96785.97;10493650;28;20066;-30
2023/08/16 20:06:54;;;;;;;0.70;0.60;;;;;;;21.44;62.71;96785.13;10488150;28;20664;-29
2023/08/16 20:11:54;;;;;;;0.40;0.40;;;;;;;21.46;62.50;96785.97;10484528;28;20028;-29
2023/08/16 20:16:55;;;;;;;0.33;0.30;;;;;;;21.45;62.54;96786.81;10492536;28;20045;-30
2023/08/16 20:21:56;;;;;;;0.40;0.40;;;;;;;21.46;62.46;96785.97;10490278;28;20433;-29
2023/08/16 20:26:56;;;;;;;0.40;0.40;;;;;;;21.45;62.42;96781.72;10488588;28;20035;-29
2023/08/16 20:31:57;;;;;;;0.50;0.50;;;;;;;21.46;62.53;96782.59;10492119;28;20040;-29
2023/08/16 20:36:57;;;;;;;0.50;0.50;;;;;;;21.40;62.50;96793.66;10482616;28;20032;-31
2023/08/16 20:41:58;;;;;;;0.30;0.30;;;;;;;21.45;62.40;96802.09;10491501;28;20036;-29
2023/08/16 20:46:58;;;;;;;0.40;0.40;;;;;;;21.46;62.35;96808.88;10490652;28;20085;-30
2023/08/16 20:51:58;;;;;;;0.57;0.57;;;;;;;21.45;62.27;96799.56;10491534;28;20032;-30
2023/08/16 20:56:59;;;;;;;0.40;0.40;;;;;;;21.44;62.14;96800.41;10486495;28;20036;-29
2023/08/16 21:01:59;;;;;;;1.07;0.70;;;;;;;21.45;62.29;96797.00;10486872;28;20048;-29
2023/08/16 21:06:59;;;;;;;0.47;0.47;;;;;;;21.46;62.16;96797.88;10481669;28;20036;-29
2023/08/16 21:12:00;;;;;;;0.50;0.50;;;;;;;21.45;62.18;96788.50;10487086;28;20037;-29
2023/08/16 21:17:00;;;;;;;0.50;0.50;;;;;;;21.46;62.34;96792.78;10489678;28;20406;-30
2023/08/16 21:22:01;;;;;;;0.90;0.70;;;;;;;21.44;62.12;96780.03;10485602;28;20037;-29
2023/08/16 21:27:02;;;;;;;0.40;0.40;;;;;;;21.45;62.23;96784.28;10489676;28;20021;-29
2023/08/16 21:32:02;;;;;;;0.60;0.60;;;;;;;21.47;62.12;96779.16;10482846;28;20282;-29
2023/08/16 21:37:03;;;;;;;0.40;0.40;;;;;;;21.46;62.15;96773.22;10490611;28;20032;-29
2023/08/16 21:42:03;;;;;;;0.40;0.40;;;;;;;21.46;61.89;96772.41;10482454;28;20066;-29
2023/08/16 21:47:04;;;;;;;0.50;0.50;;;;;;;21.45;61.98;96760.50;10488169;28;20041;-29
2023/08/16 21:52:04;;;;;;;0.47;0.47;;;;;;;21.44;62.04;96749.47;10492488;28;20058;-29
2023/08/16 21:57:04;;;;;;;0.40;0.40;;;;;;;21.44;62.18;96754.56;10491579;28;20553;-30
2023/08/16 22:02:05;;;;;;;0.40;0.40;;;;;;;21.44;61.92;96739.28;10497671;28;20475;-29
2023/08/16 22:07:05;;;;;;;0.37;0.37;;;;;;;21.45;62.17;96740.97;10488541;28;20285;-29
2023/08/16 22:12:06;;;;;;;0.30;0.30;;;;;;;21.45;61.80;96738.41;10497620;28;20086;-29
2023/08/16 22:17:07;;;;;;;0.47;0.47;;;;;;;21.44;62.03;96749.47;10493168;28;20033;-29
2023/08/16 22:22:07;;;;;;;0.43;0.43;;;;;;;21.46;62.12;96749.47;10497147;28;20146;-29
2023/08/16 22:27:07;;;;;;;0.40;0.40;;;;;;;21.46;62.08;96746.91;10489571;28;20032;-29
2023/08/16 22:32:08;;;;;;;0.50;0.40;;;;;;;21.45;61.87;96746.06;10494289;28;20040;-29
2023/08/16 22:37:08;;;;;;;0.40;0.40;;;;;;;21.45;61.87;96735.88;10496589;28;20029;-29
2023/08/16 22:42:08;;;;;;;0.70;0.60;;;;;;;21.46;61.92;96740.09;10488250;28;20032;-29
2023/08/16 22:47:09;;;;;;;0.40;0.40;;;;;;;21.45;61.73;96740.97;10496469;28;20035;-30
2023/08/16 22:52:09;;;;;;;0.37;0.37;;;;;;;21.46;61.80;96752.00;10486772;28;20094;-29
2023/08/16 22:57:10;;;;;;;0.50;0.50;;;;;;;21.46;61.94;96752.84;10489215;28;20291;-29
2023/08/16 23:02:10;;;;;;;0.47;0.47;;;;;;;21.47;61.63;96754.53;10494908;28;20032;-29
2023/08/16 23:07:11;;;;;;;0.30;0.30;;;;;;;21.47;61.73;96763.88;10487688;28;20506;-29
2023/08/16 23:12:11;;;;;;;0.50;0.50;;;;;;;21.46;61.80;96757.94;10495887;28;20033;-29
2023/08/16 23:17:12;;;;;;;0.60;0.60;;;;;;;21.46;61.65;96765.56;10490672;28;20298;-29